createdAt,value
2023-01-15T00:00:05.924Z,11.70
2023-01-15T00:02:33.920Z,9.77
2023-01-15T00:05:03.241Z,8.63
2023-01-15T00:07:31.448Z,7.20
2023-01-15T00:09:59.442Z,9.83
2023-01-15T00:12:27.290Z,9.33
2023-01-15T00:14:58.240Z,12.70
2023-01-15T00:17:26.711Z,9.40
2023-01-15T00:19:54.674Z,11.53
2023-01-15T00:22:22.579Z,9.53
2023-01-15T00:25:07.881Z,12.37
2023-01-15T00:27:44.039Z,10.30
2023-01-15T00:30:16.042Z,11.47
2023-01-15T00:32:45.223Z,9.97
2023-01-15T00:35:14.701Z,10.00
2023-01-15T00:37:44.312Z,8.13
2023-01-15T00:40:13.604Z,11.87
2023-01-15T00:42:41.713Z,11.37
2023-01-15T00:45:11.709Z,9.90
2023-01-15T00:47:42.626Z,9.30
2023-01-15T00:50:13.222Z,9.37
2023-01-15T00:52:41.797Z,9.83
2023-01-15T00:55:10.309Z,9.43
2023-01-15T00:57:38.190Z,10.60
2023-01-15T01:00:07.137Z,10.60
2023-01-15T01:02:35.144Z,12.50
2023-01-15T01:05:06.471Z,8.80
2023-01-15T01:07:34.289Z,9.50
2023-01-15T01:10:02.072Z,8.30
2023-01-15T01:12:29.944Z,11.20
2023-01-15T01:14:57.770Z,8.10
2023-01-15T01:17:25.729Z,7.53
2023-01-15T01:19:53.585Z,7.27
2023-01-15T01:22:22.917Z,9.07
2023-01-15T01:24:50.747Z,10.53
2023-01-15T01:27:19.483Z,10.70
2023-01-15T01:29:47.454Z,13.27
2023-01-15T01:32:15.286Z,10.13
2023-01-15T01:34:43.495Z,13.83
2023-01-15T01:37:12.480Z,11.47
2023-01-15T01:39:42.265Z,11.97
2023-01-15T01:42:14.308Z,9.37
2023-01-15T01:45:03.034Z,10.43
2023-01-15T01:47:34.105Z,13.30
2023-01-15T01:50:07.942Z,12.37
2023-01-15T01:52:42.761Z,10.77
2023-01-15T01:55:14.867Z,8.40
2023-01-15T01:57:43.962Z,11.10
2023-01-15T02:00:15.223Z,11.53
2023-01-15T02:02:45.311Z,11.50
2023-01-15T02:05:17.542Z,10.07
2023-01-15T02:07:46.098Z,9.33
2023-01-15T02:10:17.356Z,9.70
2023-01-15T02:12:51.571Z,10.33
2023-01-15T02:15:27.969Z,12.93
2023-01-15T02:17:59.657Z,11.20
2023-01-15T02:20:33.501Z,10.77
2023-01-15T02:23:51.271Z,8.70
2023-01-15T02:29:25.271Z,10.90
2023-01-15T02:31:53.951Z,10.67
2023-01-15T02:34:28.491Z,11.47
2023-01-15T02:37:03.725Z,13.03
2023-01-15T02:39:36.498Z,9.10
2023-01-15T02:42:06.819Z,9.60
2023-01-15T02:44:47.027Z,8.70
2023-01-15T02:47:18.469Z,12.83
2023-01-15T02:49:48.878Z,9.23
2023-01-15T02:52:25.478Z,9.17
2023-01-15T02:55:01.556Z,9.43
2023-01-15T02:57:36.251Z,11.30
2023-01-15T03:00:12.000Z,9.40
2023-01-15T03:02:45.724Z,11.43
2023-01-15T03:05:20.524Z,11.07
2023-01-15T03:07:52.883Z,11.70
2023-01-15T03:10:27.710Z,15.23
2023-01-15T03:13:04.019Z,13.90
2023-01-15T03:16:09.581Z,10.63
2023-01-15T03:18:51.337Z,11.03
2023-01-15T03:21:25.409Z,10.80
2023-01-15T03:23:57.156Z,10.37
2023-01-15T03:26:28.379Z,12.80
2023-01-15T03:29:01.930Z,9.83
2023-01-15T03:31:31.460Z,9.70
2023-01-15T03:34:00.315Z,9.77
2023-01-15T03:36:28.819Z,8.60
2023-01-15T03:39:02.160Z,8.70
2023-01-15T03:41:56.141Z,10.20
2023-01-15T03:44:33.751Z,11.47
2023-01-15T03:47:17.905Z,8.53
2023-01-15T03:49:54.849Z,9.83
2023-01-15T03:52:34.447Z,9.90
2023-01-15T03:55:12.817Z,10.03
2023-01-15T03:57:47.846Z,8.67
2023-01-15T04:00:22.221Z,10.53
2023-01-15T04:02:57.429Z,10.73
2023-01-15T04:05:29.616Z,8.63
2023-01-15T04:08:00.617Z,12.57
2023-01-15T04:10:30.663Z,10.17
2023-01-15T04:13:00.257Z,7.87
2023-01-15T04:15:28.240Z,12.30
2023-01-15T04:17:57.513Z,10.00
2023-01-15T04:20:28.100Z,8.90
2023-01-15T04:22:56.038Z,8.30
2023-01-15T04:25:23.889Z,8.73
2023-01-15T04:27:54.466Z,8.43
2023-01-15T04:30:22.529Z,8.13
2023-01-15T04:32:50.971Z,10.37
2023-01-15T04:35:20.872Z,12.03
2023-01-15T04:37:48.931Z,11.57
2023-01-15T04:40:31.069Z,9.57
2023-01-15T04:43:16.334Z,9.30
2023-01-15T04:45:44.708Z,6.97
2023-01-15T04:48:12.955Z,7.00
2023-01-15T04:50:42.261Z,8.60
2023-01-15T04:53:10.074Z,6.97
2023-01-15T04:55:37.968Z,6.43
2023-01-15T04:58:05.921Z,7.90
2023-01-15T05:00:33.793Z,7.80
2023-01-15T05:03:01.695Z,7.40
2023-01-15T05:05:29.578Z,8.77
2023-01-15T05:07:58.855Z,6.93
2023-01-15T05:10:26.728Z,6.53
2023-01-15T05:12:54.638Z,5.73
2023-01-15T05:15:22.447Z,7.07
2023-01-15T05:17:50.274Z,6.17
2023-01-15T05:20:18.465Z,10.57
2023-01-15T05:22:46.358Z,5.80
2023-01-15T05:25:15.731Z,6.50
2023-01-15T05:27:43.660Z,6.27
2023-01-15T05:30:12.836Z,8.83
2023-01-15T05:32:40.696Z,7.10
2023-01-15T05:35:09.181Z,8.27
2023-01-15T05:37:37.107Z,6.73
2023-01-15T05:40:05.606Z,6.57
2023-01-15T05:42:34.785Z,8.30
2023-01-15T05:45:02.594Z,8.17
2023-01-15T05:47:30.381Z,7.80
2023-01-15T05:49:58.182Z,6.60
2023-01-15T05:52:25.992Z,9.50
2023-01-15T05:54:53.834Z,8.20
2023-01-15T05:57:21.666Z,6.87
2023-01-15T05:59:53.319Z,7.53
2023-01-15T06:02:21.418Z,5.80
2023-01-15T06:04:49.308Z,7.53
2023-01-15T06:07:18.060Z,6.10
2023-01-15T06:09:46.165Z,5.83
2023-01-15T06:12:14.093Z,7.30
2023-01-15T06:14:42.120Z,9.70
2023-01-15T06:17:11.512Z,6.57
2023-01-15T06:19:39.512Z,6.40
2023-01-15T06:22:09.613Z,6.03
2023-01-15T06:24:38.795Z,5.17
2023-01-15T06:27:06.632Z,5.67
2023-01-15T06:29:34.515Z,4.50
2023-01-15T06:32:02.434Z,5.13
2023-01-15T06:34:31.933Z,6.90
2023-01-15T06:36:59.774Z,7.00
2023-01-15T06:39:27.831Z,6.53
2023-01-15T06:42:13.031Z,6.53
2023-01-15T06:44:58.404Z,5.70
2023-01-15T06:47:26.261Z,8.20
2023-01-15T06:49:57.634Z,8.70
2023-01-15T06:52:26.888Z,5.10
2023-01-15T06:54:55.167Z,5.20
2023-01-15T06:57:23.195Z,4.90
2023-01-15T06:59:51.938Z,6.77
2023-01-15T07:02:21.667Z,5.17
2023-01-15T07:04:49.923Z,6.30
2023-01-15T07:07:20.776Z,5.10
2023-01-15T07:09:48.924Z,6.10
2023-01-15T07:12:17.225Z,8.03
2023-01-15T07:14:45.264Z,8.70
2023-01-15T07:17:13.300Z,5.57
2023-01-15T07:19:41.354Z,5.87
2023-01-15T07:22:11.479Z,11.00
2023-01-15T07:24:40.790Z,6.33
2023-01-15T07:27:08.746Z,6.30
2023-01-15T07:29:36.643Z,8.00
2023-01-15T07:32:04.874Z,6.97
2023-01-15T07:34:32.732Z,5.63
2023-01-15T07:37:00.608Z,8.23
2023-01-15T07:39:28.520Z,9.17
2023-01-15T07:42:15.200Z,5.40
2023-01-15T07:45:00.564Z,7.80
2023-01-15T07:47:46.539Z,6.67
2023-01-15T07:50:18.098Z,5.90
2023-01-15T07:52:46.429Z,7.10
2023-01-15T07:55:14.757Z,6.40
2023-01-15T07:57:44.498Z,6.70
2023-01-15T08:00:15.890Z,7.57
2023-01-15T08:02:44.370Z,7.10
2023-01-15T08:05:12.915Z,5.40
2023-01-15T08:07:42.029Z,7.47
2023-01-15T08:10:12.190Z,6.30
2023-01-15T08:12:57.784Z,8.83
2023-01-15T08:15:27.591Z,8.70
2023-01-15T08:17:55.415Z,5.60
2023-01-15T08:20:25.537Z,8.27
2023-01-15T08:22:54.222Z,5.10
2023-01-15T08:25:23.720Z,8.27
2023-01-15T08:27:51.682Z,8.07
2023-01-15T08:30:22.373Z,5.90
2023-01-15T08:32:51.715Z,8.17
2023-01-15T08:35:19.687Z,7.70
2023-01-15T08:37:52.393Z,7.13
2023-01-15T08:40:20.509Z,6.50
2023-01-15T08:42:48.482Z,7.03
2023-01-15T08:45:16.570Z,6.13
2023-01-15T08:47:44.390Z,6.73
2023-01-15T08:50:13.774Z,8.77
2023-01-15T08:52:42.034Z,7.50
2023-01-15T08:55:10.168Z,7.33
2023-01-15T08:57:38.735Z,7.50
2023-01-15T09:00:08.455Z,8.53
2023-01-15T09:02:36.293Z,8.50
2023-01-15T09:05:04.358Z,7.43
2023-01-15T09:07:35.244Z,7.87
2023-01-15T09:10:04.323Z,5.57
2023-01-15T09:12:32.581Z,7.63
2023-01-15T09:15:03.148Z,10.30
2023-01-15T09:17:33.613Z,7.07
2023-01-15T09:20:02.989Z,7.37
2023-01-15T09:22:31.347Z,7.70
2023-01-15T09:25:00.963Z,8.33
2023-01-15T09:27:29.601Z,6.67
2023-01-15T09:29:57.851Z,6.47
2023-01-15T09:32:25.772Z,11.70
2023-01-15T09:34:53.637Z,7.60
2023-01-15T09:37:21.497Z,6.70
2023-01-15T09:39:49.406Z,7.67
2023-01-15T09:42:38.390Z,7.47
2023-01-15T09:45:21.443Z,7.43
2023-01-15T09:48:00.929Z,8.50
2023-01-15T09:50:43.155Z,8.83
2023-01-15T09:53:41.819Z,8.80
2023-01-15T09:56:17.589Z,7.73
2023-01-15T09:58:47.372Z,7.27
2023-01-15T10:01:18.096Z,7.53
2023-01-15T10:03:52.138Z,9.93
2023-01-15T10:06:25.138Z,8.43
2023-01-15T10:09:02.935Z,9.23
2023-01-15T10:11:55.049Z,8.43
2023-01-15T10:14:39.167Z,6.83
2023-01-15T10:17:20.471Z,8.57
2023-01-15T10:19:48.456Z,8.40
2023-01-15T10:22:32.584Z,14.23
2023-01-15T10:25:06.619Z,7.70
2023-01-15T10:27:36.484Z,7.33
2023-01-15T10:30:16.168Z,7.97
2023-01-15T10:33:01.461Z,9.03
2023-01-15T10:35:42.365Z,9.50
2023-01-15T10:38:21.412Z,9.23
2023-01-15T10:41:26.325Z,7.53
2023-01-15T10:44:01.437Z,10.23
2023-01-15T10:46:38.002Z,11.17
2023-01-15T10:49:13.437Z,10.90
2023-01-15T10:51:46.005Z,11.50
2023-01-15T10:54:23.327Z,11.60
2023-01-15T10:57:01.863Z,9.07
2023-01-15T10:59:40.815Z,8.43
2023-01-15T11:02:25.890Z,12.57
2023-01-15T11:04:54.357Z,9.63
2023-01-15T11:07:25.372Z,10.90
2023-01-15T11:09:53.202Z,8.90
2023-01-15T11:12:41.793Z,9.77
2023-01-15T11:15:42.611Z,10.60
2023-01-15T11:18:38.869Z,9.80
2023-01-15T11:21:13.343Z,11.87
2023-01-15T11:23:41.352Z,8.87
2023-01-15T11:26:10.420Z,13.60
2023-01-15T11:28:41.462Z,11.60
2023-01-15T11:31:10.723Z,9.80
2023-01-15T11:33:40.952Z,10.87
2023-01-15T11:36:21.701Z,11.37
2023-01-15T11:38:51.697Z,11.77
2023-01-15T11:41:45.473Z,10.43
2023-01-15T11:44:32.173Z,11.00
2023-01-15T11:47:18.100Z,12.73
2023-01-15T11:50:10.064Z,11.90
2023-01-15T11:52:40.665Z,9.90
2023-01-15T11:55:14.101Z,11.30
2023-01-15T11:57:42.920Z,8.90
2023-01-15T12:00:22.661Z,11.13
2023-01-15T12:02:52.847Z,10.80
2023-01-15T12:05:25.507Z,10.90
2023-01-15T12:07:56.632Z,11.63
2023-01-15T12:10:54.116Z,10.87
2023-01-15T12:13:31.763Z,14.10
2023-01-15T12:16:08.360Z,11.70
2023-01-15T12:18:57.010Z,12.20
2023-01-15T12:21:44.390Z,10.70
2023-01-15T12:24:26.046Z,9.60
2023-01-15T12:27:07.793Z,12.07
2023-01-15T12:29:41.105Z,13.33
2023-01-15T12:32:15.790Z,10.57
2023-01-15T12:34:50.986Z,10.43
2023-01-15T12:37:24.229Z,13.27
2023-01-15T12:39:58.678Z,10.30
2023-01-15T12:42:46.499Z,10.60
2023-01-15T12:45:18.256Z,12.43
2023-01-15T12:47:55.076Z,10.37
2023-01-15T12:50:39.238Z,10.63
2023-01-15T12:53:16.776Z,10.93
2023-01-15T12:55:50.416Z,10.03
2023-01-15T12:58:32.252Z,27.20
2023-01-15T13:01:07.945Z,20.00
2023-01-15T13:03:49.104Z,11.60
2023-01-15T13:06:18.961Z,10.73
2023-01-15T13:08:55.926Z,11.20
2023-01-15T13:11:23.860Z,11.90
2023-01-15T13:13:58.963Z,10.23
2023-01-15T13:16:42.241Z,11.17
2023-01-15T13:19:24.018Z,12.50
2023-01-15T13:21:53.119Z,11.00
2023-01-15T13:24:53.788Z,12.50
2023-01-15T13:27:35.255Z,9.60
2023-01-15T13:30:16.559Z,10.17
2023-01-15T13:32:49.391Z,9.83
2023-01-15T13:35:28.581Z,13.03
2023-01-15T13:37:59.106Z,11.83
2023-01-15T13:40:34.716Z,13.33
2023-01-15T13:43:05.490Z,9.80
2023-01-15T13:45:37.962Z,11.53
2023-01-15T13:48:09.731Z,13.57
2023-01-15T13:50:44.255Z,10.63
2023-01-15T13:53:21.826Z,9.90
2023-01-15T13:55:55.067Z,17.40
2023-01-15T13:58:26.927Z,23.17
2023-01-15T14:01:08.965Z,12.10
2023-01-15T14:03:38.879Z,10.27
2023-01-15T14:06:08.959Z,9.13
2023-01-15T14:08:42.364Z,13.80
2023-01-15T14:11:35.917Z,9.00
2023-01-15T14:14:35.744Z,9.90
2023-01-15T14:17:21.454Z,11.33
2023-01-15T14:20:09.401Z,9.10
2023-01-15T14:22:52.234Z,11.33
2023-01-15T14:25:32.662Z,12.93
2023-01-15T14:28:22.207Z,9.73
2023-01-15T14:31:10.292Z,11.20
2023-01-15T14:33:54.774Z,11.23
2023-01-15T14:36:28.412Z,12.37
2023-01-15T14:38:59.272Z,12.70
2023-01-15T14:41:29.492Z,13.77
2023-01-15T14:44:00.775Z,12.83
2023-01-15T14:46:34.161Z,10.73
2023-01-15T14:49:03.013Z,11.03
2023-01-15T14:51:34.032Z,10.90
2023-01-15T14:54:05.035Z,11.90
2023-01-15T14:56:37.059Z,12.73
2023-01-15T14:59:16.357Z,12.80
2023-01-15T15:01:46.746Z,11.70
2023-01-15T15:04:22.337Z,11.07
2023-01-15T15:06:53.900Z,9.83
2023-01-15T15:09:37.406Z,10.40
2023-01-15T15:12:25.417Z,8.97
2023-01-15T15:15:04.455Z,11.87
2023-01-15T15:17:40.518Z,9.50
2023-01-15T15:20:19.992Z,10.23
2023-01-15T15:22:50.285Z,11.90
2023-01-15T15:25:22.852Z,9.77
2023-01-15T15:27:50.863Z,9.47
2023-01-15T15:30:21.090Z,9.70
2023-01-15T15:32:49.041Z,11.10
2023-01-15T15:35:27.589Z,9.40
2023-01-15T15:37:56.428Z,9.70
2023-01-15T15:40:31.513Z,10.83
2023-01-15T15:43:23.851Z,11.87
2023-01-15T15:46:12.415Z,13.00
2023-01-15T15:48:45.107Z,10.60
2023-01-15T15:51:30.706Z,13.50
2023-01-15T15:54:17.011Z,9.60
2023-01-15T15:56:49.356Z,13.00
2023-01-15T15:59:29.259Z,13.07
2023-01-15T16:02:01.282Z,10.87
2023-01-15T16:04:29.553Z,11.70
2023-01-15T16:06:57.517Z,10.77
2023-01-15T16:09:26.026Z,11.63
2023-01-15T16:12:07.227Z,12.47
2023-01-15T16:14:37.175Z,12.07
2023-01-15T16:17:06.860Z,10.87
2023-01-15T16:19:34.886Z,12.50
2023-01-15T16:22:03.198Z,13.90
2023-01-15T16:24:30.999Z,11.93
2023-01-15T16:27:02.708Z,15.17
2023-01-15T16:29:35.543Z,10.80
2023-01-15T16:32:13.224Z,10.50
2023-01-15T16:34:41.619Z,14.20
2023-01-15T16:37:26.322Z,14.70
2023-01-15T16:39:54.540Z,21.63
2023-01-15T16:42:28.856Z,17.07
2023-01-15T16:45:01.052Z,15.70
2023-01-15T16:47:34.171Z,15.17
2023-01-15T16:50:29.107Z,11.77
2023-01-15T16:53:00.380Z,14.63
2023-01-15T16:55:40.229Z,16.00
2023-01-15T16:58:23.196Z,16.03
2023-01-15T17:00:53.345Z,11.77
2023-01-15T17:03:24.393Z,12.07
2023-01-15T17:05:55.222Z,11.87
2023-01-15T17:08:28.278Z,15.83
2023-01-15T17:10:58.844Z,16.20
2023-01-15T17:13:34.169Z,16.70
2023-01-15T17:16:05.609Z,13.13
2023-01-15T17:18:34.976Z,15.60
2023-01-15T17:21:03.090Z,14.87
2023-01-15T17:23:36.163Z,17.67
2023-01-15T17:26:05.284Z,16.23
2023-01-15T17:28:33.276Z,18.33
2023-01-15T17:31:03.078Z,13.40
2023-01-15T17:33:31.063Z,14.10
2023-01-15T17:36:01.411Z,18.23
2023-01-15T17:38:29.429Z,16.40
2023-01-15T17:41:00.392Z,15.53
2023-01-15T17:43:28.405Z,15.37
2023-01-15T17:45:56.291Z,18.07
2023-01-15T17:48:24.183Z,16.13
2023-01-15T17:50:52.023Z,14.90
2023-01-15T17:53:21.278Z,12.57
2023-01-15T17:56:06.671Z,15.30
2023-01-15T17:58:51.919Z,10.97
2023-01-15T18:01:40.191Z,14.23
2023-01-15T18:04:35.229Z,8.20
2023-01-15T18:07:03.920Z,11.00
2023-01-15T18:09:34.718Z,8.60
2023-01-15T18:12:02.796Z,9.00
2023-01-15T18:14:30.649Z,8.27
2023-01-15T18:16:58.734Z,6.80
2023-01-15T18:19:26.547Z,6.93
2023-01-15T18:21:54.444Z,6.33
2023-01-15T18:24:23.727Z,7.40
2023-01-15T18:26:53.066Z,7.67
2023-01-15T18:29:21.274Z,7.80
2023-01-15T18:31:49.611Z,10.03
2023-01-15T18:34:20.076Z,10.70
2023-01-15T18:36:48.007Z,10.63
2023-01-15T18:39:15.877Z,11.57
2023-01-15T18:42:01.082Z,9.40
2023-01-15T18:44:47.823Z,13.87
2023-01-15T18:47:17.628Z,9.33
2023-01-15T18:49:47.171Z,9.77
2023-01-15T18:52:34.178Z,10.17
2023-01-15T18:55:02.116Z,10.47
2023-01-15T18:57:29.967Z,13.73
2023-01-15T18:59:59.223Z,12.73
2023-01-15T19:02:27.113Z,18.37
2023-01-15T19:04:55.055Z,14.17
2023-01-15T19:07:23.028Z,16.10
2023-01-15T19:09:50.872Z,13.73
2023-01-15T19:12:19.843Z,15.27
2023-01-15T19:15:05.412Z,14.67
2023-01-15T19:17:52.550Z,13.40
2023-01-15T19:20:21.351Z,19.13
2023-01-15T19:23:05.015Z,16.67
2023-01-15T19:25:38.039Z,13.67
2023-01-15T19:28:07.132Z,19.67
2023-01-15T19:30:35.614Z,17.80
2023-01-15T19:33:05.266Z,16.67
2023-01-15T19:35:35.176Z,16.23
2023-01-15T19:38:03.258Z,19.80
2023-01-15T19:40:36.304Z,15.80
2023-01-15T19:43:22.259Z,15.97
2023-01-15T19:46:07.437Z,15.50
2023-01-15T19:48:54.091Z,15.80
2023-01-15T19:51:22.095Z,16.90
2023-01-15T19:53:50.127Z,18.17
2023-01-15T19:56:17.948Z,17.37
2023-01-15T19:58:45.857Z,19.23
2023-01-15T20:01:17.476Z,16.40
2023-01-15T20:03:47.203Z,22.30
2023-01-15T20:06:15.047Z,19.13
2023-01-15T20:08:42.993Z,17.67
2023-01-15T20:11:10.937Z,22.40
2023-01-15T20:13:51.997Z,20.07
2023-01-15T20:16:22.716Z,23.77
2023-01-15T20:18:53.253Z,20.90
2023-01-15T20:21:21.131Z,19.30
2023-01-15T20:23:48.955Z,20.20
2023-01-15T20:26:18.099Z,22.10
2023-01-15T20:28:47.588Z,18.40
2023-01-15T20:31:17.172Z,20.00
2023-01-15T20:33:45.233Z,19.10
2023-01-15T20:36:14.490Z,19.37
2023-01-15T20:38:42.405Z,21.00
2023-01-15T20:41:29.150Z,23.03
2023-01-15T20:44:14.630Z,22.10
2023-01-15T20:46:42.597Z,20.20
2023-01-15T20:49:24.951Z,20.37
2023-01-15T20:51:54.755Z,20.90
2023-01-15T20:54:23.113Z,15.77
2023-01-15T20:56:51.033Z,17.80
2023-01-15T20:59:18.892Z,16.20
2023-01-15T21:01:46.826Z,18.73
2023-01-15T21:04:14.844Z,18.93
2023-01-15T21:06:42.862Z,17.77
2023-01-15T21:09:12.193Z,18.50
2023-01-15T21:11:40.106Z,18.63
2023-01-15T21:14:07.897Z,16.07
2023-01-15T21:16:35.754Z,18.87
2023-01-15T21:19:04.867Z,19.07
2023-01-15T21:21:32.872Z,17.97
2023-01-15T21:24:01.182Z,21.67
2023-01-15T21:26:30.959Z,16.87
2023-01-15T21:28:58.883Z,16.43
2023-01-15T21:31:26.781Z,17.17
2023-01-15T21:33:55.727Z,15.33
2023-01-15T21:36:24.515Z,20.23
2023-01-15T21:38:53.433Z,19.60
2023-01-15T21:41:43.917Z,18.60
2023-01-15T21:44:31.590Z,15.20
2023-01-15T21:46:59.956Z,18.47
2023-01-15T21:49:28.555Z,16.63
2023-01-15T21:51:56.710Z,16.17
2023-01-15T21:54:24.712Z,18.07
2023-01-15T21:56:52.564Z,17.63
2023-01-15T21:59:22.253Z,15.87
2023-01-15T22:01:50.353Z,17.03
2023-01-15T22:04:20.606Z,18.93
2023-01-15T22:06:48.501Z,18.17
2023-01-15T22:09:17.498Z,20.23
2023-01-15T22:11:45.854Z,37.80
2023-01-15T22:14:15.200Z,40.87
2023-01-15T22:16:45.615Z,39.70
2023-01-15T22:19:19.480Z,28.20
2023-01-15T22:21:48.896Z,26.17
2023-01-15T22:24:16.966Z,22.83
2023-01-15T22:26:49.111Z,20.50
2023-01-15T22:29:16.949Z,19.57
2023-01-15T22:31:46.184Z,17.73
2023-01-15T22:34:14.227Z,21.40
2023-01-15T22:36:42.060Z,15.60
2023-01-15T22:39:10.268Z,14.73
2023-01-15T22:41:55.777Z,18.07
2023-01-15T22:44:23.610Z,13.70
2023-01-15T22:46:54.066Z,14.17
2023-01-15T22:49:22.547Z,15.77
2023-01-15T22:51:51.311Z,15.33
2023-01-15T22:54:19.799Z,14.73
2023-01-15T22:56:48.223Z,16.23
2023-01-15T22:59:16.880Z,16.37
2023-01-15T23:01:44.750Z,15.60
2023-01-15T23:04:16.714Z,16.73
2023-01-15T23:06:45.256Z,20.13
2023-01-15T23:09:13.856Z,16.33
2023-01-15T23:11:41.783Z,17.90
2023-01-15T23:14:12.364Z,16.53
2023-01-15T23:16:40.282Z,20.53
2023-01-15T23:19:08.107Z,19.50
2023-01-15T23:21:39.684Z,14.60
2023-01-15T23:24:08.098Z,15.93
2023-01-15T23:26:36.228Z,16.13
2023-01-15T23:29:04.646Z,19.40
2023-01-15T23:31:32.617Z,15.87
2023-01-15T23:34:00.618Z,18.00
2023-01-15T23:36:29.132Z,15.70
2023-01-15T23:38:58.327Z,16.30
2023-01-15T23:41:40.392Z,17.90
2023-01-15T23:44:32.419Z,22.90
2023-01-15T23:47:00.428Z,15.47
2023-01-15T23:49:28.461Z,18.00
2023-01-15T23:51:56.601Z,16.30
2023-01-15T23:54:28.885Z,16.80
2023-01-15T23:56:57.434Z,17.67
2023-01-15T23:59:25.358Z,21.47
